Time;durP1;ratioP1;P1;durP2;ratioP2;P2;SDS_P1;SDS_P2;PMS_P1;PMS_P2;Temp;Humidity;BMP_temperature;BMP_pressure;BME280_temperature;BME280_humidity;BME280_pressure;Samples;Min_cycle;Max_cycle;Signal;HPM_P1;HPM_P2
2024/03/09 00:02:20;;;;;;;14.90;10.17;;;;;;;;;;4994520;28;20442;-76
2024/03/09 00:04:46;;;;;;;19.10;12.03;;;;;;;;;;4994443;28;20415;-75
2024/03/09 00:07:12;;;;;;;23.77;11.43;;;;;;;;;;4994827;28;20501;-76
2024/03/09 00:09:38;;;;;;;19.33;12.47;;;;;;;;;;4994761;28;20427;-75
2024/03/09 00:12:08;;;;;;;18.37;11.70;;;;;;;;;;4994719;28;20401;-76
2024/03/09 00:14:35;;;;;;;19.30;12.03;;;;;;;;;;4994584;28;20470;-76
2024/03/09 00:17:01;;;;;;;19.63;12.90;;;;;;;;;;4994584;28;20835;-77
2024/03/09 00:19:29;;;;;;;23.27;11.47;;;;;;;;;;4994290;28;20445;-77
2024/03/09 00:21:55;;;;;;;20.70;12.03;;;;;;;;;;4994504;28;20418;-75
2024/03/09 00:24:21;;;;;;;15.23;10.33;;;;;;;;;;4994562;28;20429;-76
2024/03/09 00:26:47;;;;;;;21.00;11.50;;;;;;;;;;4994445;28;20411;-75
2024/03/09 00:29:13;;;;;;;16.60;11.33;;;;;;;;;;4994400;28;20768;-75
2024/03/09 00:31:39;;;;;;;21.57;11.93;;;;;;;;;;4994340;28;20443;-75
2024/03/09 00:34:05;;;;;;;22.07;11.93;;;;;;;;;;4994307;28;20475;-75
2024/03/09 00:36:31;;;;;;;15.80;9.50;;;;;;;;;;4993922;28;20954;-74
2024/03/09 00:38:57;;;;;;;17.97;12.70;;;;;;;;;;4994297;28;20770;-75
2024/03/09 00:41:23;;;;;;;15.17;10.50;;;;;;;;;;4992809;28;20467;-75
2024/03/09 00:43:54;;;;;;;18.20;11.47;;;;;;;;;;4994183;28;20407;-76
2024/03/09 00:46:20;;;;;;;18.77;12.43;;;;;;;;;;4994329;28;20501;-75
2024/03/09 00:48:46;;;;;;;17.50;11.33;;;;;;;;;;4993860;28;20503;-76
2024/03/09 00:51:12;;;;;;;17.00;12.00;;;;;;;;;;4991740;28;20437;-76
2024/03/09 00:53:38;;;;;;;18.40;12.17;;;;;;;;;;4993994;28;20514;-76
2024/03/09 00:56:05;;;;;;;21.50;12.40;;;;;;;;;;4993938;28;20492;-76
2024/03/09 00:58:32;;;;;;;21.87;13.07;;;;;;;;;;4994000;28;20899;-76
2024/03/09 01:00:58;;;;;;;16.90;11.07;;;;;;;;;;4993986;28;20927;-76
2024/03/09 01:03:24;;;;;;;17.03;11.20;;;;;;;;;;4993954;28;20422;-76
2024/03/09 01:05:51;;;;;;;17.40;12.27;;;;;;;;;;4993584;28;20975;-76
2024/03/09 01:08:18;;;;;;;21.00;12.00;;;;;;;;;;4993776;28;20424;-76
2024/03/09 01:10:44;;;;;;;21.93;13.00;;;;;;;;;;4993908;28;20513;-75
2024/03/09 01:13:10;;;;;;;21.93;12.90;;;;;;;;;;4993649;28;20516;-75
2024/03/09 01:15:36;;;;;;;16.67;11.17;;;;;;;;;;4993700;28;20436;-76
2024/03/09 01:18:02;;;;;;;22.93;12.37;;;;;;;;;;4993691;28;20417;-75
2024/03/09 01:20:28;;;;;;;18.73;11.57;;;;;;;;;;4993233;28;20476;-76
2024/03/09 01:22:54;;;;;;;14.57;10.40;;;;;;;;;;4993504;28;20888;-75
2024/03/09 01:25:20;;;;;;;18.37;10.83;;;;;;;;;;4993599;28;20474;-75
2024/03/09 01:27:46;;;;;;;21.67;13.07;;;;;;;;;;4993693;28;20771;-75
2024/03/09 01:30:12;;;;;;;22.27;12.57;;;;;;;;;;4993650;28;20419;-75
2024/03/09 01:32:40;;;;;;;17.57;13.03;;;;;;;;;;4993637;28;20427;-75
2024/03/09 01:35:08;;;;;;;20.33;13.40;;;;;;;;;;4993202;28;20482;-75
2024/03/09 01:37:33;;;;;;;19.33;13.50;;;;;;;;;;4992341;28;20911;-75
2024/03/09 01:39:59;;;;;;;17.83;12.30;;;;;;;;;;4993340;28;20468;-76
2024/03/09 01:42:26;;;;;;;24.07;13.67;;;;;;;;;;4993600;28;20413;-75
2024/03/09 01:44:52;;;;;;;25.63;14.03;;;;;;;;;;4993856;28;20907;-75
2024/03/09 01:47:23;;;;;;;20.60;13.90;;;;;;;;;;4993416;28;20415;-75
2024/03/09 01:49:50;;;;;;;18.53;11.90;;;;;;;;;;4993048;28;20415;-75
2024/03/09 01:52:16;;;;;;;20.67;11.40;;;;;;;;;;4993454;28;20900;-75
2024/03/09 01:54:43;;;;;;;17.23;12.00;;;;;;;;;;5008346;28;20485;-75
2024/03/09 01:57:13;;;;;;;20.83;11.63;;;;;;;;;;4993361;28;20430;-76
2024/03/09 01:59:40;;;;;;;20.90;11.73;;;;;;;;;;4993406;28;20490;-76
2024/03/09 02:02:06;;;;;;;21.03;12.47;;;;;;;;;;4995790;28;20429;-75
2024/03/09 02:04:34;;;;;;;22.87;12.67;;;;;;;;;;4996206;28;20560;-75
2024/03/09 02:07:01;;;;;;;23.00;12.33;;;;;;;;;;4996579;28;20430;-75
2024/03/09 02:09:27;;;;;;;21.47;12.00;;;;;;;;;;4996589;28;20417;-75
2024/03/09 02:11:56;;;;;;;25.40;15.23;;;;;;;;;;4995233;28;20460;-75
2024/03/09 02:14:22;;;;;;;24.90;13.97;;;;;;;;;;4996372;28;20471;-75
2024/03/09 02:16:49;;;;;;;26.57;14.90;;;;;;;;;;4995243;28;20898;-75
2024/03/09 02:19:15;;;;;;;21.67;12.90;;;;;;;;;;4996010;28;20413;-75
2024/03/09 02:21:45;;;;;;;25.93;13.77;;;;;;;;;;4996476;28;20487;-75
2024/03/09 02:24:14;;;;;;;21.53;13.00;;;;;;;;;;4992530;28;20422;-74
2024/03/09 02:26:41;;;;;;;20.33;13.10;;;;;;;;;;4996302;28;20426;-75
2024/03/09 02:29:08;;;;;;;15.40;8.43;;;;;;;;;;4996385;28;20406;-75
2024/03/09 02:31:33;;;;;;;24.57;14.30;;;;;;;;;;4996671;28;20867;-75
2024/03/09 02:34:01;;;;;;;22.60;13.33;;;;;;;;;;4996313;28;20514;-75
2024/03/09 02:36:27;;;;;;;16.47;12.70;;;;;;;;;;4996593;28;20413;-75
2024/03/09 02:38:57;;;;;;;22.80;13.63;;;;;;;;;;4996566;28;20419;-76
2024/03/09 02:41:26;;;;;;;23.17;14.37;;;;;;;;;;4996307;28;20859;-78
2024/03/09 02:43:53;;;;;;;23.63;15.17;;;;;;;;;;4996507;28;20577;-76
2024/03/09 02:46:21;;;;;;;24.47;13.83;;;;;;;;;;4996427;28;20412;-75
2024/03/09 02:48:48;;;;;;;27.20;14.60;;;;;;;;;;4996350;28;20825;-76
2024/03/09 02:51:14;;;;;;;21.27;13.77;;;;;;;;;;4995981;28;20407;-75
2024/03/09 02:53:40;;;;;;;20.53;12.40;;;;;;;;;;4996157;28;20454;-76
2024/03/09 02:56:07;;;;;;;25.67;14.03;;;;;;;;;;4996248;28;20416;-75
2024/03/09 02:58:33;;;;;;;22.80;13.97;;;;;;;;;;4996251;28;20415;-76
2024/03/09 03:00:59;;;;;;;25.13;14.63;;;;;;;;;;4996144;28;20403;-76
2024/03/09 03:06:10;;;;;;;24.17;13.13;;;;;;;;;;4995796;28;20405;-80
2024/03/09 03:08:36;;;;;;;23.93;14.37;;;;;;;;;;4994756;28;20418;-75
2024/03/09 03:11:02;;;;;;;19.00;13.40;;;;;;;;;;4995902;28;20416;-76
2024/03/09 03:13:28;;;;;;;23.20;14.23;;;;;;;;;;4994479;28;20603;-78
2024/03/09 03:15:54;;;;;;;21.30;14.83;;;;;;;;;;4995886;28;20416;-75
2024/03/09 03:18:20;;;;;;;24.60;16.50;;;;;;;;;;4995853;28;20466;-76
2024/03/09 03:20:46;;;;;;;23.97;14.23;;;;;;;;;;4995439;28;20417;-75
2024/03/09 03:23:12;;;;;;;24.13;13.57;;;;;;;;;;4995900;28;20498;-76
2024/03/09 03:25:38;;;;;;;24.67;15.50;;;;;;;;;;4995663;28;20413;-76
2024/03/09 03:28:05;;;;;;;22.87;14.47;;;;;;;;;;4995655;28;20502;-75
2024/03/09 03:30:33;;;;;;;24.67;15.70;;;;;;;;;;4995630;28;20418;-76
2024/03/09 03:33:00;;;;;;;20.90;14.47;;;;;;;;;;4995663;28;20426;-76
2024/03/09 03:35:26;;;;;;;25.43;15.87;;;;;;;;;;4995001;28;20474;-75
2024/03/09 03:37:54;;;;;;;24.53;13.97;;;;;;;;;;4995507;28;20418;-76
2024/03/09 03:40:22;;;;;;;22.50;15.23;;;;;;;;;;4993955;28;20484;-75
2024/03/09 03:42:48;;;;;;;30.30;15.70;;;;;;;;;;4995361;28;21184;-75
2024/03/09 03:45:15;;;;;;;26.67;15.03;;;;;;;;;;4995392;28;20411;-76
2024/03/09 03:47:41;;;;;;;25.53;15.20;;;;;;;;;;4994006;28;20410;-75
2024/03/09 03:50:11;;;;;;;20.90;14.10;;;;;;;;;;4993624;28;20934;-75
2024/03/09 03:52:39;;;;;;;23.47;14.00;;;;;;;;;;4995257;28;20462;-76
2024/03/09 03:55:11;;;;;;;20.87;14.73;;;;;;;;;;4995108;28;20494;-76
2024/03/09 03:57:38;;;;;;;22.20;13.57;;;;;;;;;;4995129;28;20809;-75
2024/03/09 04:00:05;;;;;;;26.80;14.43;;;;;;;;;;4995079;28;20422;-75
2024/03/09 04:02:35;;;;;;;22.20;16.23;;;;;;;;;;4995049;28;20410;-75
2024/03/09 04:05:02;;;;;;;20.27;14.13;;;;;;;;;;4994617;28;20424;-75
2024/03/09 04:07:28;;;;;;;22.37;14.20;;;;;;;;;;4994923;28;20439;-75
2024/03/09 04:09:54;;;;;;;29.33;16.20;;;;;;;;;;4994874;28;20441;-77
2024/03/09 04:12:20;;;;;;;23.57;15.87;;;;;;;;;;4994787;28;20400;-75
2024/03/09 04:14:48;;;;;;;29.07;15.60;;;;;;;;;;4994721;28;20903;-75
2024/03/09 04:17:14;;;;;;;26.03;15.70;;;;;;;;;;4994730;28;20457;-76
2024/03/09 04:19:42;;;;;;;30.07;17.23;;;;;;;;;;4994313;28;20421;-75
2024/03/09 04:22:12;;;;;;;28.90;16.67;;;;;;;;;;4994547;28;20435;-75
2024/03/09 04:24:42;;;;;;;26.50;16.37;;;;;;;;;;4994368;28;20407;-75
2024/03/09 04:27:10;;;;;;;28.03;17.13;;;;;;;;;;4994531;28;20411;-75
2024/03/09 04:29:36;;;;;;;27.67;17.30;;;;;;;;;;4994444;28;20415;-75
2024/03/09 04:32:02;;;;;;;30.70;17.70;;;;;;;;;;4994493;28;20411;-75
2024/03/09 04:34:28;;;;;;;23.70;14.47;;;;;;;;;;4993955;28;20579;-76
2024/03/09 04:36:56;;;;;;;27.43;15.97;;;;;;;;;;4994326;28;20403;-75
2024/03/09 04:39:21;;;;;;;28.90;17.40;;;;;;;;;;4993075;28;20481;-75
2024/03/09 04:41:47;;;;;;;25.60;15.30;;;;;;;;;;4994080;28;20829;-75
2024/03/09 04:44:13;;;;;;;26.17;17.00;;;;;;;;;;4994227;28;20424;-76
2024/03/09 04:46:39;;;;;;;26.13;17.70;;;;;;;;;;4994174;28;20415;-75
2024/03/09 04:49:07;;;;;;;27.23;18.47;;;;;;;;;;4993815;28;20414;-77
2024/03/09 04:51:34;;;;;;;26.30;17.90;;;;;;;;;;4994188;28;20904;-77
2024/03/09 04:54:00;;;;;;;24.70;16.33;;;;;;;;;;4994058;28;20553;-76
2024/03/09 04:56:26;;;;;;;23.60;16.23;;;;;;;;;;4994096;28;20441;-76
2024/03/09 04:58:52;;;;;;;29.67;17.70;;;;;;;;;;4994007;28;20422;-76
2024/03/09 05:01:18;;;;;;;30.50;16.77;;;;;;;;;;4994005;28;20462;-77
2024/03/09 05:03:44;;;;;;;27.63;16.07;;;;;;;;;;4993646;28;20414;-77
2024/03/09 05:06:10;;;;;;;31.60;18.23;;;;;;;;;;4992676;28;20437;-76
2024/03/09 05:08:36;;;;;;;27.50;19.33;;;;;;;;;;4993855;28;20480;-76
2024/03/09 05:11:02;;;;;;;29.23;17.40;;;;;;;;;;4992570;28;20464;-75
2024/03/09 05:13:28;;;;;;;27.63;17.77;;;;;;;;;;4993789;28;20457;-78
2024/03/09 05:15:54;;;;;;;25.87;16.80;;;;;;;;;;4992550;28;20459;-76
2024/03/09 05:18:21;;;;;;;29.67;17.43;;;;;;;;;;4993706;28;20506;-76
2024/03/09 05:20:47;;;;;;;30.20;18.27;;;;;;;;;;4993434;28;20469;-77
2024/03/09 05:23:13;;;;;;;30.07;18.97;;;;;;;;;;4993695;28;20427;-76
2024/03/09 05:25:40;;;;;;;29.43;18.63;;;;;;;;;;4993734;28;20463;-76
2024/03/09 05:28:06;;;;;;;28.93;17.23;;;;;;;;;;4993732;28;20424;-77
2024/03/09 05:30:32;;;;;;;28.87;19.33;;;;;;;;;;4993613;28;20919;-76
2024/03/09 05:33:01;;;;;;;33.23;18.67;;;;;;;;;;4993701;28;20823;-77
2024/03/09 05:35:28;;;;;;;31.70;17.70;;;;;;;;;;4993196;28;20486;-76
2024/03/09 05:37:54;;;;;;;31.53;19.50;;;;;;;;;;4997655;28;20410;-75
2024/03/09 05:40:20;;;;;;;31.60;17.97;;;;;;;;;;4997496;28;20455;-75
2024/03/09 05:42:50;;;;;;;33.90;20.63;;;;;;;;;;4997545;28;20425;-79
2024/03/09 05:45:20;;;;;;;31.00;19.70;;;;;;;;;;4997574;28;20411;-75
2024/03/09 05:47:50;;;;;;;29.13;19.90;;;;;;;;;;4996525;28;20779;-77
2024/03/09 05:50:16;;;;;;;30.87;17.40;;;;;;;;;;4997133;28;20772;-77
2024/03/09 05:52:51;;;;;;;31.13;20.13;;;;;;;;;;4997851;28;20414;-76
2024/03/09 05:55:19;;;;;;;37.93;22.20;;;;;;;;;;4997283;28;20501;-77
2024/03/09 05:57:48;;;;;;;27.53;20.00;;;;;;;;;;4997302;28;20406;-78
2024/03/09 06:00:16;;;;;;;37.67;20.83;;;;;;;;;;4997119;28;20418;-77
2024/03/09 06:02:44;;;;;;;40.63;22.40;;;;;;;;;;4997141;28;20452;-76
2024/03/09 06:05:10;;;;;;;33.57;20.60;;;;;;;;;;4996807;28;20433;-77
2024/03/09 06:07:39;;;;;;;30.13;19.87;;;;;;;;;;4997145;28;20407;-77
2024/03/09 06:10:07;;;;;;;33.33;20.63;;;;;;;;;;4997100;28;20978;-77
2024/03/09 06:12:33;;;;;;;31.13;18.73;;;;;;;;;;4997020;28;20475;-77
2024/03/09 06:14:59;;;;;;;38.07;21.50;;;;;;;;;;4996869;28;20529;-77
2024/03/09 06:17:25;;;;;;;31.17;18.40;;;;;;;;;;4996939;28;20415;-77
2024/03/09 06:19:51;;;;;;;30.97;16.37;;;;;;;;;;4996623;28;20417;-78
2024/03/09 06:22:18;;;;;;;36.40;20.00;;;;;;;;;;4996879;28;20403;-77
2024/03/09 06:24:43;;;;;;;33.20;20.20;;;;;;;;;;4996718;28;20415;-77
2024/03/09 06:27:09;;;;;;;23.70;15.53;;;;;;;;;;4996670;28;20423;-76
2024/03/09 06:29:37;;;;;;;35.50;20.87;;;;;;;;;;4996680;28;20803;-77
2024/03/09 06:32:05;;;;;;;28.40;18.40;;;;;;;;;;4996596;28;20752;-76
2024/03/09 06:34:31;;;;;;;32.70;19.60;;;;;;;;;;4996087;28;20474;-76
2024/03/09 06:36:57;;;;;;;28.87;19.63;;;;;;;;;;4996523;28;20419;-77
2024/03/09 06:39:25;;;;;;;28.77;19.00;;;;;;;;;;4996452;28;20426;-78
2024/03/09 06:41:53;;;;;;;31.53;19.07;;;;;;;;;;4996222;28;20489;-76
2024/03/09 06:44:22;;;;;;;32.77;20.40;;;;;;;;;;4996416;28;20923;-77
2024/03/09 06:46:51;;;;;;;25.77;17.00;;;;;;;;;;4996242;28;20465;-78
2024/03/09 06:49:17;;;;;;;28.70;17.80;;;;;;;;;;4995939;28;20419;-77
2024/03/09 06:51:44;;;;;;;35.83;20.93;;;;;;;;;;4995928;28;20968;-77
2024/03/09 06:54:13;;;;;;;30.10;18.90;;;;;;;;;;4996093;28;20835;-78
2024/03/09 06:56:39;;;;;;;31.43;20.67;;;;;;;;;;4994958;28;20421;-78
2024/03/09 06:59:06;;;;;;;31.30;20.03;;;;;;;;;;4996133;28;20510;-80
2024/03/09 07:01:32;;;;;;;36.93;20.30;;;;;;;;;;4996071;28;20411;-78
2024/03/09 07:04:03;;;;;;;30.00;19.80;;;;;;;;;;4995684;28;20872;-77
2024/03/09 07:06:33;;;;;;;31.03;15.03;;;;;;;;;;4996002;28;20418;-77
2024/03/09 07:09:00;;;;;;;27.77;19.63;;;;;;;;;;4996044;28;20413;-77
2024/03/09 07:11:26;;;;;;;30.37;18.37;;;;;;;;;;4995877;28;20450;-78
2024/03/09 07:13:55;;;;;;;24.10;14.63;;;;;;;;;;4995808;28;20458;-79
2024/03/09 07:16:22;;;;;;;26.77;17.73;;;;;;;;;;4995844;28;20421;-78
2024/03/09 07:18:48;;;;;;;33.37;21.00;;;;;;;;;;4995558;28;20746;-78
2024/03/09 07:21:15;;;;;;;32.60;20.40;;;;;;;;;;4995764;28;20424;-77
2024/03/09 07:23:41;;;;;;;29.70;20.20;;;;;;;;;;4995802;28;20450;-78
2024/03/09 07:26:11;;;;;;;28.07;18.43;;;;;;;;;;4995704;28;20407;-79
2024/03/09 07:28:38;;;;;;;26.87;19.80;;;;;;;;;;4995767;28;20811;-78
2024/03/09 07:31:05;;;;;;;30.10;18.13;;;;;;;;;;4995631;28;20428;-78
2024/03/09 07:33:32;;;;;;;30.30;19.20;;;;;;;;;;4995174;28;20412;-79
2024/03/09 07:35:59;;;;;;;28.93;19.37;;;;;;;;;;4995555;28;20409;-78
2024/03/09 07:38:24;;;;;;;29.67;18.23;;;;;;;;;;4995346;28;20420;-78
2024/03/09 07:40:50;;;;;;;31.20;20.73;;;;;;;;;;4995282;28;20469;-77
2024/03/09 07:43:19;;;;;;;31.50;20.23;;;;;;;;;;4995333;28;20829;-78
2024/03/09 07:45:46;;;;;;;30.00;21.07;;;;;;;;;;4994614;28;20419;-79
2024/03/09 07:48:16;;;;;;;31.87;19.70;;;;;;;;;;4994372;28;20537;-80
2024/03/09 07:50:46;;;;;;;27.73;19.57;;;;;;;;;;4995269;28;20548;-78
2024/03/09 07:53:12;;;;;;;24.77;17.90;;;;;;;;;;4995256;28;20474;-78
2024/03/09 07:55:38;;;;;;;26.40;18.77;;;;;;;;;;4995076;28;20474;-79
2024/03/09 07:58:04;;;;;;;26.37;18.47;;;;;;;;;;4994986;28;20900;-78
2024/03/09 08:00:33;;;;;;;26.33;19.53;;;;;;;;;;4994329;28;20426;-78
2024/03/09 08:03:01;;;;;;;26.00;19.50;;;;;;;;;;4994381;28;20444;-78
2024/03/09 08:05:28;;;;;;;27.93;18.63;;;;;;;;;;4994610;28;20922;-81
2024/03/09 08:07:55;;;;;;;24.20;19.60;;;;;;;;;;4994734;28;20446;-80
2024/03/09 08:10:22;;;;;;;24.87;17.90;;;;;;;;;;4994861;28;20467;-80
2024/03/09 08:12:49;;;;;;;25.30;18.27;;;;;;;;;;4994726;28;20423;-82
2024/03/09 08:15:15;;;;;;;28.37;20.90;;;;;;;;;;4994551;28;20889;-81
2024/03/09 08:17:41;;;;;;;19.90;16.90;;;;;;;;;;4994755;28;20505;-81
2024/03/09 08:20:14;;;;;;;26.90;18.10;;;;;;;;;;4993126;28;20416;-81
2024/03/09 08:22:40;;;;;;;25.23;18.33;;;;;;;;;;4994710;28;20421;-82
2024/03/09 08:25:15;;;;;;;24.73;19.63;;;;;;;;;;4994542;28;20419;-78
2024/03/09 08:27:42;;;;;;;25.93;19.73;;;;;;;;;;4994493;28;20428;-78
2024/03/09 08:30:15;;;;;;;25.87;19.33;;;;;;;;;;4994598;28;20417;-78
2024/03/09 08:32:44;;;;;;;25.40;18.70;;;;;;;;;;4994538;28;20414;-78
2024/03/09 08:35:10;;;;;;;22.50;18.97;;;;;;;;;;4993939;28;20501;-78
2024/03/09 08:37:41;;;;;;;24.43;20.20;;;;;;;;;;4994377;28;20445;-76
2024/03/09 08:40:17;;;;;;;24.43;20.87;;;;;;;;;;4994192;28;20452;-78
2024/03/09 08:42:51;;;;;;;22.53;18.57;;;;;;;;;;4994272;28;20768;-78
2024/03/09 08:45:18;;;;;;;27.57;22.53;;;;;;;;;;4994240;28;20428;-75
2024/03/09 08:47:44;;;;;;;25.90;20.93;;;;;;;;;;4989656;28;20836;-76
2024/03/09 08:50:10;;;;;;;25.83;19.33;;;;;;;;;;4991309;28;20435;-76
2024/03/09 08:52:37;;;;;;;28.43;20.97;;;;;;;;;;4993633;28;20410;-75
2024/03/09 08:55:03;;;;;;;27.13;20.57;;;;;;;;;;4993503;28;20537;-76
2024/03/09 08:57:29;;;;;;;24.07;19.70;;;;;;;;;;4992388;28;20515;-76
2024/03/09 08:59:59;;;;;;;25.93;19.60;;;;;;;;;;4993572;28;20435;-75
2024/03/09 09:02:28;;;;;;;26.90;18.70;;;;;;;;;;4993660;28;20471;-75
2024/03/09 09:04:54;;;;;;;26.93;19.37;;;;;;;;;;4993114;28;20833;-80
2024/03/09 09:07:20;;;;;;;27.33;19.10;;;;;;;;;;4993463;28;20416;-75
2024/03/09 09:09:47;;;;;;;24.87;18.67;;;;;;;;;;5007406;28;20800;-76
2024/03/09 09:12:13;;;;;;;23.23;17.80;;;;;;;;;;5012279;28;20417;-78
2024/03/09 09:14:39;;;;;;;21.43;17.60;;;;;;;;;;5007389;28;20470;-76
2024/03/09 09:17:06;;;;;;;28.70;19.73;;;;;;;;;;4993272;28;20182;-76
2024/03/09 09:19:33;;;;;;;21.20;18.93;;;;;;;;;;4992940;28;20419;-79
2024/03/09 09:21:59;;;;;;;22.93;18.30;;;;;;;;;;4993316;28;20410;-75
2024/03/09 09:24:25;;;;;;;23.87;17.50;;;;;;;;;;5011793;28;20516;-76
2024/03/09 09:26:51;;;;;;;22.30;17.53;;;;;;;;;;5011876;28;20987;-75
2024/03/09 09:29:17;;;;;;;23.10;17.77;;;;;;;;;;5013245;28;20253;-75
2024/03/09 09:31:43;;;;;;;23.03;17.37;;;;;;;;;;5013241;28;20182;-78
2024/03/09 09:34:12;;;;;;;23.57;16.60;;;;;;;;;;5012888;28;20468;-76
2024/03/09 09:36:38;;;;;;;23.10;17.57;;;;;;;;;;5013393;28;20416;-78
2024/03/09 09:39:08;;;;;;;21.40;17.30;;;;;;;;;;5009687;28;20433;-77
2024/03/09 09:41:35;;;;;;;23.47;17.60;;;;;;;;;;5012027;28;20465;-77
2024/03/09 09:44:02;;;;;;;25.50;19.43;;;;;;;;;;5012793;28;20437;-77
2024/03/09 09:46:29;;;;;;;26.37;19.03;;;;;;;;;;4999967;28;20430;-78
2024/03/09 09:48:56;;;;;;;24.80;18.50;;;;;;;;;;4992679;28;20411;-78
2024/03/09 09:51:23;;;;;;;21.00;16.97;;;;;;;;;;4993620;28;20429;-78
2024/03/09 09:53:52;;;;;;;22.90;18.83;;;;;;;;;;4993596;28;20523;-77
2024/03/09 09:56:20;;;;;;;22.90;20.10;;;;;;;;;;5012209;28;20424;-79
2024/03/09 09:58:47;;;;;;;21.07;17.67;;;;;;;;;;5011260;28;20411;-78
2024/03/09 10:01:13;;;;;;;23.47;17.63;;;;;;;;;;5012677;28;20940;-76
2024/03/09 10:03:39;;;;;;;24.30;17.90;;;;;;;;;;5011076;28;20474;-76
2024/03/09 10:06:18;;;;;;;20.53;14.33;;;;;;;;;;5012669;28;20432;-79
2024/03/09 10:08:48;;;;;;;22.60;17.60;;;;;;;;;;5012524;28;21095;-78
2024/03/09 10:11:15;;;;;;;23.07;18.70;;;;;;;;;;5012567;28;20474;-76
2024/03/09 10:13:41;;;;;;;21.30;16.90;;;;;;;;;;5012548;28;20411;-79
2024/03/09 10:16:07;;;;;;;19.80;16.90;;;;;;;;;;5011321;28;20437;-79
2024/03/09 10:18:33;;;;;;;20.00;16.77;;;;;;;;;;5002694;28;20419;-78
2024/03/09 10:20:59;;;;;;;22.13;17.50;;;;;;;;;;4992834;28;20430;-76
2024/03/09 10:23:27;;;;;;;19.97;17.63;;;;;;;;;;4995744;28;20445;-75
2024/03/09 10:26:04;;;;;;;21.43;16.87;;;;;;;;;;4996489;28;20172;-79
2024/03/09 10:28:31;;;;;;;19.03;15.60;;;;;;;;;;4996358;28;20900;-75
2024/03/09 10:31:02;;;;;;;20.40;17.43;;;;;;;;;;4996295;28;20430;-80
2024/03/09 10:33:32;;;;;;;22.80;18.20;;;;;;;;;;4995868;28;20412;-76
2024/03/09 10:35:59;;;;;;;21.63;17.10;;;;;;;;;;4996144;28;20428;-79
2024/03/09 10:38:28;;;;;;;21.70;18.13;;;;;;;;;;5001695;28;20474;-80
2024/03/09 10:40:58;;;;;;;18.97;16.87;;;;;;;;;;5015801;28;21015;-81
2024/03/09 10:43:24;;;;;;;15.87;14.03;;;;;;;;;;5016091;28;20412;-85
2024/03/09 10:46:00;;;;;;;17.73;15.73;;;;;;;;;;4996484;28;20871;-81
2024/03/09 10:48:26;;;;;;;16.70;14.80;;;;;;;;;;4995951;28;20410;-84
2024/03/09 10:51:04;;;;;;;17.83;15.00;;;;;;;;;;4994736;28;20452;-81
2024/03/09 10:53:43;;;;;;;17.17;14.50;;;;;;;;;;4996186;28;20411;-80
2024/03/09 10:56:18;;;;;;;17.87;14.53;;;;;;;;;;4996200;28;20462;-75
2024/03/09 10:58:46;;;;;;;19.00;15.83;;;;;;;;;;4995899;28;20405;-76
2024/03/09 11:01:15;;;;;;;18.37;14.20;;;;;;;;;;4995870;28;20417;-78
2024/03/09 11:03:41;;;;;;;18.10;14.80;;;;;;;;;;4995699;28;20855;-77
2024/03/09 11:06:11;;;;;;;20.80;15.63;;;;;;;;;;4995710;28;20513;-80
2024/03/09 11:08:37;;;;;;;19.33;15.17;;;;;;;;;;4995783;28;20420;-75
2024/03/09 11:11:04;;;;;;;18.77;15.33;;;;;;;;;;4995682;28;20416;-76
2024/03/09 11:13:30;;;;;;;19.23;15.37;;;;;;;;;;4995621;28;20168;-75
2024/03/09 11:15:58;;;;;;;18.80;14.90;;;;;;;;;;4995600;28;20440;-77
2024/03/09 11:18:24;;;;;;;19.33;13.43;;;;;;;;;;4995230;28;20777;-81
2024/03/09 11:20:59;;;;;;;20.33;14.93;;;;;;;;;;4994472;28;20436;-75
2024/03/09 11:23:24;;;;;;;18.10;13.10;;;;;;;;;;4995546;28;20192;-77
2024/03/09 11:25:53;;;;;;;19.63;13.70;;;;;;;;;;4995230;28;20434;-79
2024/03/09 11:28:23;;;;;;;17.00;11.60;;;;;;;;;;4994107;28;20534;-83
2024/03/09 11:31:14;;;;;;;17.53;12.40;;;;;;;;;;4995471;28;20416;-79
2024/03/09 11:33:57;;;;;;;15.27;11.20;;;;;;;;;;4994137;28;20400;-75
2024/03/09 11:36:42;;;;;;;17.60;12.73;;;;;;;;;;5014426;28;20418;-76
2024/03/09 11:39:08;;;;;;;17.90;11.43;;;;;;;;;;5013591;28;20476;-76
2024/03/09 11:41:38;;;;;;;18.70;13.07;;;;;;;;;;5014575;28;20465;-76
2024/03/09 11:44:04;;;;;;;17.87;11.70;;;;;;;;;;5014777;28;20402;-74
2024/03/09 11:46:30;;;;;;;15.63;11.13;;;;;;;;;;5014703;28;20760;-75
2024/03/09 11:48:57;;;;;;;16.27;11.80;;;;;;;;;;5014322;28;20432;-82
2024/03/09 11:51:23;;;;;;;12.30;10.53;;;;;;;;;;5013406;28;20527;-81
2024/03/09 11:53:49;;;;;;;12.37;8.07;;;;;;;;;;5014395;28;20611;-77
2024/03/09 11:56:15;;;;;;;17.17;9.97;;;;;;;;;;5013337;28;20795;-81
2024/03/09 11:58:41;;;;;;;14.13;10.30;;;;;;;;;;5014416;28;20440;-75
2024/03/09 12:01:08;;;;;;;12.20;8.90;;;;;;;;;;5014370;28;20514;-76
2024/03/09 12:03:34;;;;;;;14.23;9.77;;;;;;;;;;5012813;28;20416;-75
2024/03/09 12:06:00;;;;;;;15.00;10.77;;;;;;;;;;5013024;28;20431;-77
2024/03/09 12:08:26;;;;;;;15.60;11.70;;;;;;;;;;5014294;28;20852;-76
2024/03/09 12:10:57;;;;;;;15.50;11.57;;;;;;;;;;5014300;28;20826;-77
2024/03/09 12:13:25;;;;;;;15.83;12.37;;;;;;;;;;5014208;28;20436;-75
2024/03/09 12:15:51;;;;;;;16.97;12.70;;;;;;;;;;5014197;28;20441;-76
2024/03/09 12:18:17;;;;;;;17.77;13.60;;;;;;;;;;5012420;28;20795;-75
2024/03/09 12:20:43;;;;;;;17.07;11.73;;;;;;;;;;5014064;28;20945;-75
2024/03/09 12:23:10;;;;;;;13.90;10.67;;;;;;;;;;5014053;28;20417;-76
2024/03/09 12:25:36;;;;;;;17.53;12.73;;;;;;;;;;5013989;28;20428;-77
2024/03/09 12:28:05;;;;;;;16.57;12.57;;;;;;;;;;5013848;28;20429;-76
2024/03/09 12:30:31;;;;;;;17.00;13.10;;;;;;;;;;5013942;28;20552;-76
2024/03/09 12:32:57;;;;;;;15.20;12.23;;;;;;;;;;5013593;28;20414;-75
2024/03/09 12:35:23;;;;;;;19.30;12.40;;;;;;;;;;5013823;28;20307;-75
2024/03/09 12:37:49;;;;;;;13.07;9.87;;;;;;;;;;5013773;28;20553;-78
2024/03/09 12:40:19;;;;;;;15.50;11.93;;;;;;;;;;5013638;28;20509;-77
2024/03/09 12:42:48;;;;;;;15.53;13.43;;;;;;;;;;5013714;28;20413;-77
2024/03/09 12:45:24;;;;;;;13.30;11.13;;;;;;;;;;5013681;28;20410;-78
2024/03/09 12:47:58;;;;;;;16.33;12.60;;;;;;;;;;5013191;28;20768;-77
2024/03/09 12:50:25;;;;;;;14.93;12.10;;;;;;;;;;5013655;28;20417;-76
2024/03/09 12:52:52;;;;;;;15.53;12.83;;;;;;;;;;5012345;28;20425;-76
2024/03/09 12:55:25;;;;;;;12.93;10.40;;;;;;;;;;5013368;28;20481;-80
2024/03/09 12:57:52;;;;;;;15.40;10.63;;;;;;;;;;5012012;28;20932;-76
2024/03/09 13:00:19;;;;;;;14.03;10.90;;;;;;;;;;5011409;28;20848;-76
2024/03/09 13:02:52;;;;;;;11.93;9.27;;;;;;;;;;5011409;28;20427;-76
2024/03/09 13:05:19;;;;;;;13.40;11.57;;;;;;;;;;5012786;28;20404;-77
2024/03/09 13:07:52;;;;;;;14.10;11.53;;;;;;;;;;5013249;28;21024;-76
2024/03/09 13:10:19;;;;;;;16.13;11.93;;;;;;;;;;5013366;28;20814;-77
2024/03/09 13:12:48;;;;;;;15.10;11.03;;;;;;;;;;5013273;28;20428;-75
2024/03/09 13:15:20;;;;;;;12.30;9.47;;;;;;;;;;5013121;28;20474;-77
2024/03/09 13:17:46;;;;;;;15.47;11.83;;;;;;;;;;5012665;28;20772;-78
2024/03/09 13:20:17;;;;;;;15.83;12.03;;;;;;;;;;5013011;28;20424;-77
2024/03/09 13:22:43;;;;;;;14.47;10.73;;;;;;;;;;5013304;28;20416;-76
2024/03/09 13:25:10;;;;;;;15.53;10.30;;;;;;;;;;5013155;28;20467;-79
2024/03/09 13:27:37;;;;;;;15.47;10.87;;;;;;;;;;5013056;28;20405;-76
2024/03/09 13:30:16;;;;;;;13.90;10.80;;;;;;;;;;5011584;28;20932;-77
2024/03/09 13:32:42;;;;;;;13.03;9.03;;;;;;;;;;5012748;28;20405;-76
2024/03/09 13:35:08;;;;;;;14.50;10.33;;;;;;;;;;5011887;28;20475;-75
2024/03/09 13:37:37;;;;;;;14.97;11.07;;;;;;;;;;5013037;28;20658;-76
2024/03/09 13:40:03;;;;;;;14.67;9.30;;;;;;;;;;5013008;28;20463;-76
2024/03/09 13:42:30;;;;;;;15.83;10.70;;;;;;;;;;5011892;28;20925;-77
2024/03/09 13:44:56;;;;;;;13.77;10.37;;;;;;;;;;5012945;28;20481;-75
2024/03/09 13:47:24;;;;;;;13.07;9.47;;;;;;;;;;4990642;28;20427;-77
2024/03/09 13:49:52;;;;;;;13.43;9.30;;;;;;;;;;4976088;28;20937;-75
2024/03/09 13:52:18;;;;;;;12.20;9.67;;;;;;;;;;4973956;28;20414;-76
2024/03/09 13:54:44;;;;;;;10.70;7.40;;;;;;;;;;4973651;28;20570;-77
2024/03/09 13:57:11;;;;;;;12.07;9.17;;;;;;;;;;4974756;28;20491;-75
2024/03/09 13:59:37;;;;;;;12.50;7.77;;;;;;;;;;4977653;28;20810;-76
2024/03/09 14:02:08;;;;;;;11.83;9.27;;;;;;;;;;4977151;28;20565;-76
2024/03/09 14:04:35;;;;;;;12.37;9.20;;;;;;;;;;4977513;28;20238;-76
2024/03/09 14:07:01;;;;;;;14.87;9.57;;;;;;;;;;4977406;28;20410;-79
2024/03/09 14:09:36;;;;;;;12.77;8.97;;;;;;;;;;4977533;28;20423;-78
2024/03/09 14:12:02;;;;;;;11.33;8.37;;;;;;;;;;4977574;28;20814;-77
2024/03/09 14:14:29;;;;;;;14.10;10.73;;;;;;;;;;4977426;28;20565;-76
2024/03/09 14:16:55;;;;;;;12.47;10.20;;;;;;;;;;4994734;28;20431;-80
2024/03/09 14:19:21;;;;;;;12.87;10.07;;;;;;;;;;5016180;28;20458;-78
2024/03/09 14:21:50;;;;;;;12.87;9.00;;;;;;;;;;5016294;28;20496;-78
2024/03/09 14:24:16;;;;;;;15.70;11.63;;;;;;;;;;5012571;28;20176;-79